createdAt,value
2019-02-18T00:01:10.667Z,-0.20
2019-02-18T00:03:39.607Z,-0.20
2019-02-18T00:06:08.508Z,-0.10
2019-02-18T00:08:37.472Z,-0.10
2019-02-18T00:11:06.567Z,0.00
2019-02-18T00:13:35.885Z,0.00
2019-02-18T00:16:05.449Z,0.00
2019-02-18T00:18:34.328Z,0.10
2019-02-18T00:21:03.744Z,0.10
2019-02-18T00:23:32.637Z,0.10
2019-02-18T00:26:01.588Z,0.10
2019-02-18T00:28:31.205Z,0.10
2019-02-18T00:31:00.463Z,0.10
2019-02-18T00:33:29.332Z,0.20
2019-02-18T00:35:58.630Z,0.30
2019-02-18T00:38:27.526Z,0.40
2019-02-18T00:40:56.992Z,0.50
2019-02-18T00:43:26.664Z,0.60
2019-02-18T00:45:55.470Z,0.70
2019-02-18T00:48:24.164Z,0.80
2019-02-18T00:50:53.058Z,0.90
2019-02-18T00:53:22.452Z,1.00
2019-02-18T00:55:51.713Z,1.00
2019-02-18T00:58:21.064Z,1.10
2019-02-18T01:00:50.307Z,1.00
2019-02-18T01:03:19.628Z,1.00
2019-02-18T01:05:48.536Z,0.90
2019-02-18T01:08:18.097Z,0.90
2019-02-18T01:10:46.887Z,0.80
2019-02-18T01:13:16.491Z,0.70
2019-02-18T01:15:45.537Z,0.70
2019-02-18T01:18:14.368Z,0.60
2019-02-18T01:20:43.687Z,0.60
2019-02-18T01:23:12.889Z,0.50
2019-02-18T01:25:41.766Z,0.50
2019-02-18T01:28:10.681Z,0.50
2019-02-18T01:30:39.970Z,0.40
2019-02-18T01:33:09.701Z,0.40
2019-02-18T01:35:39.121Z,0.40
2019-02-18T01:38:08.124Z,0.40
2019-02-18T01:40:37.477Z,0.30
2019-02-18T01:43:06.779Z,0.30
2019-02-18T01:45:36.021Z,0.30
2019-02-18T01:48:04.988Z,0.30
2019-02-18T01:50:34.004Z,0.30
2019-02-18T01:53:03.360Z,0.30
2019-02-18T01:55:32.731Z,0.40
2019-02-18T01:58:01.633Z,0.50
2019-02-18T02:00:30.984Z,0.50
2019-02-18T02:03:00.489Z,0.60
2019-02-18T02:05:29.271Z,0.70
2019-02-18T02:07:58.090Z,0.80
2019-02-18T02:10:27.339Z,0.80
2019-02-18T02:13:15.634Z,0.90
2019-02-18T02:15:44.564Z,1.00
2019-02-18T02:18:13.331Z,1.10
2019-02-18T02:20:42.289Z,1.10
2019-02-18T02:23:11.698Z,1.20
2019-02-18T02:25:40.998Z,1.20
2019-02-18T02:28:10.343Z,1.20
2019-02-18T02:30:39.512Z,1.20
2019-02-18T02:33:08.769Z,1.20
2019-02-18T02:35:38.139Z,1.10
2019-02-18T02:38:08.192Z,1.00
2019-02-18T02:40:37.615Z,0.80
2019-02-18T02:43:06.550Z,0.70
2019-02-18T02:45:36.024Z,0.70
2019-02-18T02:48:05.282Z,0.60
2019-02-18T02:50:34.104Z,0.60
2019-02-18T02:53:03.616Z,0.70
2019-02-18T02:55:33.065Z,0.60
2019-02-18T02:58:02.481Z,0.60
2019-02-18T03:00:31.937Z,0.60
2019-02-18T03:03:00.746Z,0.80
2019-02-18T03:05:29.959Z,0.80
2019-02-18T03:07:59.317Z,0.90
2019-02-18T03:10:28.631Z,1.00
2019-02-18T03:12:57.482Z,1.10
2019-02-18T03:15:26.356Z,1.10
2019-02-18T03:17:55.574Z,1.10
2019-02-18T03:20:24.542Z,1.20
2019-02-18T03:22:53.843Z,1.30
2019-02-18T03:25:27.124Z,1.30
2019-02-18T03:28:20.444Z,1.30
2019-02-18T03:30:58.275Z,1.20
2019-02-18T03:33:32.873Z,1.20
2019-02-18T03:36:02.250Z,1.10
2019-02-18T03:38:32.153Z,1.00
2019-02-18T03:41:03.363Z,0.80
2019-02-18T03:43:32.116Z,0.70
2019-02-18T03:46:01.018Z,0.60
2019-02-18T03:48:30.608Z,0.50
2019-02-18T03:50:59.397Z,0.30
2019-02-18T03:53:28.749Z,0.20
2019-02-18T03:55:58.296Z,0.10
2019-02-18T03:58:27.566Z,0.10
2019-02-18T04:01:05.390Z,0.10
2019-02-18T04:03:34.407Z,0.00
2019-02-18T04:06:03.975Z,-0.10
2019-02-18T04:08:42.305Z,-0.10
2019-02-18T04:11:04.068Z,-0.10
2019-02-18T04:13:34.999Z,-0.20
2019-02-18T04:16:04.505Z,-0.20
2019-02-18T04:18:33.971Z,-0.30
2019-02-18T04:21:02.971Z,-0.40
2019-02-18T04:23:32.527Z,-0.40
2019-02-18T04:26:01.464Z,-0.40
2019-02-18T04:28:30.891Z,-0.40
2019-02-18T04:31:00.416Z,-0.30
2019-02-18T04:33:29.827Z,-0.30
2019-02-18T04:35:58.617Z,-0.30
2019-02-18T04:38:28.192Z,-0.30
2019-02-18T04:40:57.407Z,-0.30
2019-02-18T04:43:26.782Z,-0.30
2019-02-18T04:45:56.235Z,-0.30
2019-02-18T04:48:25.512Z,-0.30
2019-02-18T04:50:54.789Z,-0.40
2019-02-18T04:53:24.310Z,-0.50
2019-02-18T04:55:53.460Z,-0.50
2019-02-18T04:58:22.789Z,-0.40
2019-02-18T05:00:51.599Z,-0.40
2019-02-18T05:03:20.459Z,-0.40
2019-02-18T05:05:49.351Z,-0.40
2019-02-18T05:08:18.770Z,-0.40
2019-02-18T05:10:47.950Z,-0.40
2019-02-18T05:13:17.550Z,-0.40
2019-02-18T05:15:46.584Z,-0.40
2019-02-18T05:18:15.693Z,-0.40
2019-02-18T05:20:44.605Z,-0.50
2019-02-18T05:23:14.072Z,-0.60
2019-02-18T05:25:43.591Z,-0.60
2019-02-18T05:31:41.976Z,-0.70
2019-02-18T05:34:10.865Z,-0.70
2019-02-18T05:36:40.053Z,-0.80
2019-02-18T05:39:17.602Z,-0.80
2019-02-18T05:41:39.757Z,-0.70
2019-02-18T05:44:09.272Z,-0.70
2019-02-18T05:46:39.406Z,-0.70
2019-02-18T05:49:09.150Z,-0.70
2019-02-18T05:51:38.637Z,-0.70
2019-02-18T05:54:07.763Z,-0.60
2019-02-18T05:56:36.941Z,-0.70
2019-02-18T05:59:06.456Z,-0.60
2019-02-18T06:01:36.251Z,-0.70
2019-02-18T06:04:05.684Z,-0.70
2019-02-18T06:06:35.019Z,-0.70
2019-02-18T06:09:05.107Z,-0.80
2019-02-18T06:11:33.981Z,-0.80
2019-02-18T06:14:03.560Z,-0.80
2019-02-18T06:16:32.618Z,-0.70
2019-02-18T06:19:01.619Z,-0.70
2019-02-18T06:21:30.283Z,-0.60
2019-02-18T06:23:59.020Z,-0.60
2019-02-18T06:26:27.699Z,-0.60
2019-02-18T06:28:56.219Z,-0.50
2019-02-18T06:31:24.921Z,-0.40
2019-02-18T06:33:53.675Z,-0.20
2019-02-18T06:36:23.921Z,0.00
2019-02-18T06:38:52.742Z,0.10
2019-02-18T06:41:21.394Z,0.10
2019-02-18T06:43:50.050Z,0.10
2019-02-18T06:46:23.541Z,0.20
2019-02-18T06:48:54.087Z,0.20
2019-02-18T06:51:22.728Z,0.30
2019-02-18T06:53:51.363Z,0.40
2019-02-18T06:56:21.650Z,0.60
2019-02-18T06:58:54.815Z,0.80
2019-02-18T07:01:28.075Z,1.20
2019-02-18T07:04:16.663Z,1.50
2019-02-18T07:06:46.936Z,1.70
2019-02-18T07:09:19.949Z,2.10
2019-02-18T07:11:50.231Z,2.40
2019-02-18T07:14:18.999Z,2.60
2019-02-18T07:16:47.670Z,3.00
2019-02-18T07:19:16.387Z,3.50
2019-02-18T07:21:45.094Z,4.10
2019-02-18T07:24:15.327Z,4.50
2019-02-18T07:26:44.041Z,4.80
2019-02-18T07:29:12.730Z,5.30
2019-02-18T07:31:41.477Z,6.00
2019-02-18T07:34:10.101Z,6.30
2019-02-18T07:36:38.686Z,6.30
2019-02-18T07:39:07.876Z,6.40
2019-02-18T07:41:36.465Z,6.40
2019-02-18T07:44:05.202Z,6.30
2019-02-18T07:46:33.914Z,6.40
2019-02-18T07:49:02.539Z,6.50
2019-02-18T07:51:31.322Z,6.10
2019-02-18T07:53:59.841Z,6.00
2019-02-18T07:56:28.427Z,5.80
2019-02-18T07:58:57.092Z,5.60
2019-02-18T08:01:25.715Z,5.50
2019-02-18T08:03:54.351Z,5.40
2019-02-18T08:06:23.161Z,5.50
2019-02-18T08:08:51.904Z,5.40
2019-02-18T08:11:22.494Z,5.10
2019-02-18T08:13:51.274Z,4.90
2019-02-18T08:16:19.854Z,4.70
2019-02-18T08:18:50.442Z,5.20
2019-02-18T08:21:19.509Z,5.40
2019-02-18T08:23:48.109Z,5.50
2019-02-18T08:26:16.891Z,5.20
2019-02-18T08:28:46.035Z,5.00
2019-02-18T08:31:14.757Z,4.80
2019-02-18T08:33:43.317Z,4.60
2019-02-18T08:36:11.944Z,4.50
2019-02-18T08:38:40.530Z,4.60
2019-02-18T08:41:09.157Z,4.30
2019-02-18T08:43:37.915Z,4.40
2019-02-18T08:46:06.627Z,4.40
2019-02-18T08:48:35.386Z,4.50
2019-02-18T08:51:04.170Z,4.60
2019-02-18T08:53:32.698Z,4.60
2019-02-18T08:56:01.390Z,4.60
2019-02-18T08:58:30.000Z,4.60
2019-02-18T09:01:02.481Z,4.60
2019-02-18T09:03:30.288Z,4.60
2019-02-18T09:05:58.890Z,4.70
2019-02-18T09:08:27.597Z,4.70
2019-02-18T09:10:56.238Z,4.60
2019-02-18T09:13:25.004Z,4.50
2019-02-18T09:16:00.021Z,4.50
2019-02-18T09:18:23.883Z,4.50
2019-02-18T09:20:52.574Z,4.50
2019-02-18T09:23:22.903Z,4.30
2019-02-18T09:25:52.420Z,4.20
2019-02-18T09:28:21.184Z,3.90
2019-02-18T09:30:50.707Z,3.80
2019-02-18T09:33:19.435Z,3.80
2019-02-18T09:35:48.221Z,3.70
2019-02-18T09:38:24.350Z,3.80
2019-02-18T09:43:17.634Z,3.50
2019-02-18T09:45:46.244Z,3.60
2019-02-18T09:48:14.951Z,3.60
2019-02-18T09:50:43.660Z,3.70
2019-02-18T09:53:12.474Z,3.80
2019-02-18T09:55:41.144Z,3.70
2019-02-18T09:58:09.798Z,3.70
2019-02-18T10:00:38.470Z,3.70
2019-02-18T10:03:07.108Z,3.70
2019-02-18T10:05:35.798Z,3.80
2019-02-18T10:08:04.476Z,3.80
2019-02-18T10:10:34.662Z,3.90
2019-02-18T10:13:03.484Z,3.90
2019-02-18T10:15:32.153Z,4.00
2019-02-18T10:18:00.757Z,4.00
2019-02-18T10:20:29.553Z,4.00
2019-02-18T10:22:58.233Z,4.10
2019-02-18T10:25:26.853Z,4.10
2019-02-18T10:27:55.693Z,4.20
2019-02-18T10:30:24.400Z,4.20
2019-02-18T10:32:53.031Z,4.20
2019-02-18T10:35:22.826Z,4.30
2019-02-18T10:37:55.240Z,4.40
2019-02-18T10:40:21.823Z,4.40
2019-02-18T10:42:50.573Z,4.50
2019-02-18T10:45:19.228Z,4.60
2019-02-18T10:47:47.971Z,4.60
2019-02-18T10:50:17.044Z,4.60
2019-02-18T10:52:45.746Z,4.70
2019-02-18T10:55:14.419Z,4.70
2019-02-18T10:57:43.179Z,4.70
2019-02-18T11:00:16.212Z,4.80
2019-02-18T11:02:45.158Z,4.80
2019-02-18T11:05:13.912Z,4.90
2019-02-18T11:07:42.687Z,4.90
2019-02-18T11:10:15.545Z,5.00
2019-02-18T11:12:44.352Z,5.10
2019-02-18T11:15:16.057Z,5.20
2019-02-18T11:17:45.204Z,5.30
2019-02-18T11:20:14.313Z,5.30
2019-02-18T11:22:43.625Z,5.30
2019-02-18T11:25:13.412Z,5.30
2019-02-18T11:27:42.068Z,5.50
2019-02-18T11:30:19.972Z,5.50
2019-02-18T11:32:50.226Z,5.50
2019-02-18T11:35:19.031Z,5.50
2019-02-18T11:37:47.729Z,5.60
2019-02-18T11:40:18.493Z,5.60
2019-02-18T11:42:47.173Z,5.70
2019-02-18T11:45:16.843Z,5.70
2019-02-18T11:47:45.545Z,5.70
2019-02-18T11:50:15.243Z,5.80
2019-02-18T11:52:43.946Z,5.80
2019-02-18T11:55:15.586Z,5.80
2019-02-18T11:57:46.163Z,5.80
2019-02-18T12:00:17.867Z,5.80
2019-02-18T12:02:46.718Z,5.90
2019-02-18T12:05:15.428Z,6.00
2019-02-18T12:07:44.030Z,6.00
2019-02-18T12:10:13.500Z,6.00
2019-02-18T12:12:42.480Z,6.00
2019-02-18T12:15:17.405Z,6.00
2019-02-18T12:17:46.188Z,6.00
2019-02-18T12:20:15.886Z,6.00
2019-02-18T12:22:44.632Z,6.10
2019-02-18T12:25:13.691Z,6.10
2019-02-18T12:27:42.578Z,6.00
2019-02-18T12:30:15.813Z,6.00
2019-02-18T12:32:44.558Z,6.00
2019-02-18T12:35:13.319Z,6.00
2019-02-18T12:37:42.010Z,6.00
2019-02-18T12:40:16.963Z,6.00
2019-02-18T12:42:45.831Z,6.10
2019-02-18T12:45:15.097Z,6.00
2019-02-18T12:47:43.821Z,6.10
2019-02-18T12:50:12.854Z,6.10
2019-02-18T12:52:44.256Z,6.10
2019-02-18T12:55:13.307Z,6.20
2019-02-18T12:57:42.608Z,6.30
2019-02-18T13:00:14.032Z,6.30
2019-02-18T13:02:44.606Z,6.40
2019-02-18T13:05:13.888Z,6.30
2019-02-18T13:07:42.681Z,6.40
2019-02-18T13:10:11.978Z,6.40
2019-02-18T13:12:41.300Z,6.40
2019-02-18T13:15:17.587Z,6.40
2019-02-18T13:17:46.290Z,6.40
2019-02-18T13:20:14.939Z,6.30
2019-02-18T13:22:43.682Z,6.30
2019-02-18T13:25:12.417Z,6.30
2019-02-18T13:27:41.128Z,6.30
2019-02-18T13:30:15.537Z,6.30
2019-02-18T13:32:44.303Z,6.20
2019-02-18T13:35:13.054Z,6.20
2019-02-18T13:37:41.926Z,6.10
2019-02-18T13:40:11.251Z,6.10
2019-02-18T13:42:43.231Z,6.00
2019-02-18T13:45:11.943Z,6.00
2019-02-18T13:47:40.598Z,5.90
2019-02-18T13:50:11.425Z,5.80
2019-02-18T13:52:40.144Z,5.80
2019-02-18T13:55:12.726Z,5.70
2019-02-18T13:57:42.089Z,5.60
2019-02-18T14:00:21.401Z,5.60
2019-02-18T14:02:50.750Z,5.60
2019-02-18T14:05:21.072Z,5.50
2019-02-18T14:07:49.830Z,5.50
2019-02-18T14:10:19.428Z,5.50
2019-02-18T14:12:48.337Z,5.50
2019-02-18T14:15:17.852Z,5.50
2019-02-18T14:17:46.519Z,5.50
2019-02-18T14:20:16.760Z,5.50
2019-02-18T14:22:45.413Z,5.40
2019-02-18T14:25:14.803Z,5.40
2019-02-18T14:27:43.446Z,5.40
2019-02-18T14:30:17.030Z,5.40
2019-02-18T14:32:45.698Z,5.40
2019-02-18T14:35:16.176Z,5.40
2019-02-18T14:37:44.781Z,5.40
2019-02-18T14:40:15.266Z,5.30
2019-02-18T14:42:44.026Z,5.30
2019-02-18T14:45:12.766Z,5.20
2019-02-18T14:47:41.578Z,5.20
2019-02-18T14:50:10.603Z,5.10
2019-02-18T14:52:39.358Z,5.10
2019-02-18T14:55:09.114Z,5.00
2019-02-18T14:57:37.794Z,5.00
2019-02-18T15:00:12.922Z,5.00
2019-02-18T15:02:41.813Z,5.00
2019-02-18T15:05:10.609Z,5.00
2019-02-18T15:07:39.667Z,5.00
2019-02-18T15:10:09.972Z,5.00
2019-02-18T15:12:38.714Z,5.00
2019-02-18T15:15:07.463Z,5.00
2019-02-18T15:17:37.106Z,4.80
2019-02-18T15:20:07.834Z,4.80
2019-02-18T15:22:40.631Z,4.70
2019-02-18T15:25:10.398Z,4.60
2019-02-18T15:27:39.108Z,4.60
2019-02-18T15:30:12.709Z,4.50
2019-02-18T15:32:41.383Z,4.40
2019-02-18T15:35:10.085Z,4.40
2019-02-18T15:37:39.176Z,4.40
2019-02-18T15:40:12.744Z,4.40
2019-02-18T15:42:42.570Z,4.40
2019-02-18T15:45:11.619Z,4.40
2019-02-18T15:47:40.297Z,4.40
2019-02-18T15:50:13.026Z,4.50
2019-02-18T15:52:42.047Z,4.50
2019-02-18T15:55:11.272Z,4.50
2019-02-18T15:57:39.959Z,4.50
2019-02-18T16:00:17.985Z,4.60
2019-02-18T16:02:47.029Z,4.60
2019-02-18T16:05:15.766Z,4.60
2019-02-18T16:07:44.518Z,4.60
2019-02-18T16:10:13.183Z,4.50
2019-02-18T16:12:50.215Z,4.50
2019-02-18T16:15:12.414Z,4.50
2019-02-18T16:17:41.478Z,4.50
2019-02-18T16:20:14.139Z,4.40
2019-02-18T16:22:43.489Z,4.30
2019-02-18T16:25:15.257Z,4.30
2019-02-18T16:27:43.852Z,4.20
2019-02-18T16:30:14.275Z,4.20
2019-02-18T16:32:43.210Z,4.20
2019-02-18T16:35:11.935Z,4.20
2019-02-18T16:37:41.046Z,4.10
2019-02-18T16:40:15.058Z,4.10
2019-02-18T16:42:42.964Z,4.20
2019-02-18T16:45:14.272Z,4.10
2019-02-18T16:47:42.972Z,4.10
2019-02-18T16:50:11.661Z,4.20
2019-02-18T16:52:40.304Z,4.20
2019-02-18T16:55:11.113Z,4.10
2019-02-18T16:57:39.823Z,4.20
2019-02-18T17:00:13.276Z,4.20
2019-02-18T17:02:41.939Z,4.20
2019-02-18T17:05:10.506Z,4.30
2019-02-18T17:07:39.259Z,4.20
2019-02-18T17:10:08.482Z,4.30
2019-02-18T17:12:37.074Z,4.30
2019-02-18T17:15:09.112Z,4.30
2019-02-18T17:17:37.838Z,4.30
2019-02-18T17:20:07.143Z,4.30
2019-02-18T17:22:35.808Z,4.30
2019-02-18T17:25:05.820Z,4.30
2019-02-18T17:27:34.468Z,4.30
2019-02-18T17:30:03.668Z,4.30
2019-02-18T17:32:32.525Z,4.30
2019-02-18T17:35:01.264Z,4.40
2019-02-18T17:37:29.988Z,4.30
2019-02-18T17:39:58.668Z,4.30
2019-02-18T17:42:27.382Z,4.30
2019-02-18T17:44:56.183Z,4.30
2019-02-18T17:47:24.864Z,4.30
2019-02-18T17:49:53.523Z,4.30
2019-02-18T17:52:22.212Z,4.30
2019-02-18T17:54:51.040Z,4.30
2019-02-18T17:57:19.671Z,4.30
2019-02-18T17:59:48.281Z,4.30
2019-02-18T18:02:17.411Z,4.30
2019-02-18T18:04:46.161Z,4.30
2019-02-18T18:07:14.953Z,4.30
2019-02-18T18:13:25.469Z,4.30
2019-02-18T18:15:54.593Z,4.30
2019-02-18T18:18:24.363Z,4.30
2019-02-18T18:20:53.564Z,4.30
2019-02-18T18:23:23.744Z,4.30
2019-02-18T18:25:53.174Z,4.30
2019-02-18T18:28:22.638Z,4.30
2019-02-18T18:30:52.097Z,4.30
2019-02-18T18:33:21.517Z,4.30
2019-02-18T18:35:50.917Z,4.30
2019-02-18T18:38:20.425Z,4.30
2019-02-18T18:40:49.950Z,4.40
2019-02-18T18:43:19.362Z,4.30
2019-02-18T18:45:48.603Z,4.30
2019-02-18T18:48:17.817Z,4.30
2019-02-18T18:50:46.736Z,4.30
2019-02-18T18:53:15.906Z,4.30
2019-02-18T18:55:45.710Z,4.40
2019-02-18T18:58:15.212Z,4.40
2019-02-18T19:00:45.041Z,4.40
2019-02-18T19:03:14.212Z,4.40
2019-02-18T19:05:43.657Z,4.30
2019-02-18T19:08:12.472Z,4.30
2019-02-18T19:10:42.084Z,4.30
2019-02-18T19:13:11.793Z,4.30
2019-02-18T19:15:49.299Z,4.30
2019-02-18T19:18:11.654Z,4.30
2019-02-18T19:20:41.597Z,4.30
2019-02-18T19:23:10.400Z,4.40
2019-02-18T19:25:39.604Z,4.40
2019-02-18T19:28:09.105Z,4.40
2019-02-18T19:30:39.474Z,4.40
2019-02-18T19:33:08.619Z,4.40
2019-02-18T19:35:37.975Z,4.40
2019-02-18T19:38:09.191Z,4.40
2019-02-18T19:40:38.472Z,4.50
2019-02-18T19:43:07.727Z,4.50
2019-02-18T19:45:37.076Z,4.50
2019-02-18T19:48:06.332Z,4.50
2019-02-18T19:50:35.590Z,4.50
2019-02-18T19:53:04.414Z,4.50
2019-02-18T19:55:33.786Z,4.50
2019-02-18T19:58:03.566Z,4.60
2019-02-18T20:00:33.002Z,4.60
2019-02-18T20:03:01.750Z,4.60
2019-02-18T20:05:31.335Z,4.60
2019-02-18T20:08:00.948Z,4.60
2019-02-18T20:13:59.238Z,4.50
2019-02-18T20:16:29.394Z,4.50
2019-02-18T20:18:59.172Z,4.50
2019-02-18T20:21:28.410Z,4.50
2019-02-18T20:23:57.926Z,4.40
2019-02-18T20:26:27.583Z,4.40
2019-02-18T20:28:57.248Z,4.30
2019-02-18T20:31:26.910Z,4.30
2019-02-18T20:33:55.945Z,4.30
2019-02-18T20:36:25.413Z,4.30
2019-02-18T20:38:55.070Z,4.20
2019-02-18T20:41:24.510Z,4.20
2019-02-18T20:43:53.880Z,4.20
2019-02-18T20:46:22.796Z,4.10
2019-02-18T20:48:51.648Z,4.10
2019-02-18T20:51:21.860Z,4.00
2019-02-18T20:53:51.457Z,3.90
2019-02-18T20:56:20.928Z,3.80
2019-02-18T20:58:50.560Z,3.80
2019-02-18T21:01:19.965Z,3.70
2019-02-18T21:03:49.185Z,3.60
2019-02-18T21:06:18.459Z,3.60
2019-02-18T21:08:47.459Z,3.60
2019-02-18T21:11:16.399Z,3.60
2019-02-18T21:13:45.671Z,3.60
2019-02-18T21:16:14.834Z,3.60
2019-02-18T21:18:43.997Z,3.60
2019-02-18T21:21:13.396Z,3.60
2019-02-18T21:23:42.773Z,3.60
2019-02-18T21:26:12.640Z,3.60
2019-02-18T21:28:42.201Z,3.50
2019-02-18T21:31:11.382Z,3.50
2019-02-18T21:33:40.620Z,3.50
2019-02-18T21:36:10.001Z,3.50
2019-02-18T21:38:39.252Z,3.50
2019-02-18T21:41:08.961Z,3.50
2019-02-18T21:43:38.259Z,3.60
2019-02-18T21:46:07.454Z,3.70
2019-02-18T21:48:36.498Z,3.80
2019-02-18T21:51:05.876Z,3.90
2019-02-18T21:53:34.702Z,4.00
2019-02-18T21:56:04.042Z,4.00
2019-02-18T21:58:33.267Z,4.10
2019-02-18T22:01:02.785Z,4.10
2019-02-18T22:03:32.039Z,4.10
2019-02-18T22:06:01.383Z,4.20
2019-02-18T22:08:30.146Z,4.20
2019-02-18T22:10:59.322Z,4.20
2019-02-18T22:13:28.034Z,4.20
2019-02-18T22:15:58.403Z,4.10
2019-02-18T22:18:27.622Z,4.10
2019-02-18T22:20:56.942Z,4.10
2019-02-18T22:23:26.136Z,4.10
2019-02-18T22:25:55.344Z,4.10
2019-02-18T22:28:24.101Z,4.10
2019-02-18T22:30:52.828Z,4.10
2019-02-18T22:33:21.885Z,4.10
2019-02-18T22:35:51.048Z,4.10
2019-02-18T22:38:20.262Z,4.10
2019-02-18T22:40:49.074Z,4.10
2019-02-18T22:43:18.864Z,4.00
2019-02-18T22:45:47.791Z,4.10
2019-02-18T22:48:16.963Z,4.10
2019-02-18T22:50:45.888Z,4.10
2019-02-18T22:53:14.959Z,4.10
2019-02-18T22:55:43.932Z,4.10
2019-02-18T22:58:13.286Z,4.10
2019-02-18T23:00:46.367Z,4.10
2019-02-18T23:03:15.559Z,4.10
2019-02-18T23:05:44.443Z,4.10
2019-02-18T23:08:13.388Z,4.10
2019-02-18T23:10:42.695Z,4.10
2019-02-18T23:13:11.655Z,4.00
2019-02-18T23:15:41.234Z,4.00
2019-02-18T23:18:10.467Z,4.00
2019-02-18T23:20:39.733Z,3.90
2019-02-18T23:23:08.934Z,3.90
2019-02-18T23:25:38.174Z,3.90
2019-02-18T23:28:07.447Z,4.00
2019-02-18T23:30:37.062Z,3.90
2019-02-18T23:33:05.978Z,4.00
2019-02-18T23:35:35.354Z,4.00
2019-02-18T23:38:04.615Z,4.00
2019-02-18T23:40:34.003Z,4.00
2019-02-18T23:43:02.896Z,4.00
2019-02-18T23:45:32.361Z,4.00
2019-02-18T23:48:01.739Z,4.00
2019-02-18T23:50:31.113Z,3.90
2019-02-18T23:53:00.194Z,3.90
2019-02-18T23:55:29.538Z,4.00
2019-02-18T23:57:58.787Z,3.90
